This is the latest recevied weather packets stored in our database for station/object 9M2IBR-1. If no packets are shown the sender has not sent any weather packets the latest 10 day(s).
| Time | Temp. | Humidity | Pressure | Rain* | Wind** | Luminosity | Snow |
|---|---|---|---|---|---|---|---|
| 1777672825 | 23.89° C | 99% | 1007.2 hPa | 0 mm | - | 0 W/m² | - |
| 1777671028 | 23.89° C | 99% | 1007.6 hPa | 0 mm | - | 0 W/m² | - |
| 1777669825 | 23.89° C | 99% | 1007.4 hPa | 0 mm | - | 0 W/m² | - |
| 1777664127 | 24.44° C | 98% | 1008 hPa | 0 mm | - | 0 W/m² | - |
| 1777661122 | 25° C | 97% | 1008.3 hPa | 0 mm | - | 0 W/m² | - |
| 1777657246 | 25° C | 96% | 1008.7 hPa | 0 mm | - | 0 W/m² | - |
| 1777653919 | 25.56° C | 96% | 1009.3 hPa | 0 mm | - | 0 W/m² | - |
| 1777652122 | 25.56° C | 95% | 1009.5 hPa | 0 mm | - | 0 W/m² | - |
| 1777650648 | 25.56° C | 95% | 1009.4 hPa | 0 mm | - | 0 W/m² | - |
| 1777650043 | 25.56° C | 95% | 1009.5 hPa | 0 mm | - | 0 W/m² | - |
| 1777647363 | 25.56° C | 95% | 1009.5 hPa | 0 mm | - | 0 W/m² | - |
| 1777645825 | 25.56° C | 96% | 1009.2 hPa | 0 mm | - | 0 W/m² | - |
| 1777642518 | 26.11° C | 95% | 1008.6 hPa | 0 mm | - | 0 W/m² | - |
| 1777639829 | 26.11° C | 95% | 1008.5 hPa | 0 mm | - | 0 W/m² | - |
| 1777638319 | 26.11° C | 95% | 1008.4 hPa | 0 mm | - | 0 W/m² | - |
| 1777637730 | 26.11° C | 94% | 1008.3 hPa | 0 mm | - | 0 W/m² | - |
| 1777631720 | 27.78° C | 93% | 1007.4 hPa | 0 mm | - | 32 W/m² | - |
| 1777631116 | 28.33° C | 92% | 1007.4 hPa | 0 mm | - | 60 W/m² | - |
| 1777630235 | 28.89° C | 90% | 1007.2 hPa | 0 mm | - | 53 W/m² | - |
| 1777629017 | 30° C | 86% | 1007.3 hPa | 0 mm | - | 52 W/m² | - |
| 1777627527 | 30° C | 86% | 1006.7 hPa | 0 mm | - | 261 W/m² | - |
| 1777625766 | 28.33° C | 90% | 1006.4 hPa | 0 mm | - | 96 W/m² | - |
| 1777625423 | 28.33° C | 90% | 1006.2 hPa | 0 mm | - | 86 W/m² | - |
| 1777625121 | 28.33° C | 89% | 1006.3 hPa | 0 mm | - | 87 W/m² | - |
| 1777623646 | 28.33° C | 88% | 1006.5 hPa | 0 mm | - | 84 W/m² | - |
* Rain latest hour (hover to see other rain measurements)
** Current wind speed in m/s (hover to see current wind gust speed)